createdAt,value
2018-07-28T06:25:21.302Z,21.00
2018-07-28T06:28:32.285Z,21.00
2018-07-28T06:31:18.683Z,21.00
2018-07-28T06:35:46.332Z,21.00
2018-07-28T06:39:45.146Z,21.00
2018-07-28T06:42:28.361Z,21.00
2018-07-28T06:45:07.973Z,21.00
2018-07-28T06:48:05.873Z,21.00
2018-07-28T06:50:50.653Z,21.00
2018-07-28T06:53:26.833Z,21.00
2018-07-28T06:55:56.573Z,21.00
2018-07-28T06:59:25.103Z,21.00
2018-07-28T07:04:14.893Z,21.00
2018-07-28T07:07:14.973Z,21.00
2018-07-28T07:09:51.153Z,21.00
2018-07-28T07:12:40.413Z,21.00
2018-07-28T07:15:12.313Z,21.00
2018-07-28T07:17:41.781Z,26.06
2018-07-28T07:20:11.653Z,26.56
2018-07-28T07:22:41.101Z,26.32
2018-07-28T07:25:24.433Z,26.32
2018-07-28T07:27:54.021Z,27.08
2018-07-28T07:30:23.640Z,27.46
2018-07-28T07:32:53.033Z,27.59
2018-07-28T07:35:22.674Z,27.29
2018-07-28T07:37:52.621Z,27.62
2018-07-28T07:40:22.201Z,28.08
2018-07-28T07:42:51.656Z,27.86
2018-07-28T07:45:21.280Z,27.99
2018-07-28T07:47:50.773Z,27.73
2018-07-28T07:50:20.433Z,27.91
2018-07-28T07:52:50.001Z,27.14
2018-07-28T07:55:20.061Z,27.44
2018-07-28T07:57:49.534Z,27.45
2018-07-28T08:00:19.272Z,27.73
2018-07-28T08:02:49.281Z,27.08
2018-07-28T08:05:19.472Z,27.36
2018-07-28T08:07:49.532Z,27.67
2018-07-28T08:10:19.296Z,27.07
2018-07-28T08:12:49.813Z,26.93
2018-07-28T08:15:26.693Z,26.89
2018-07-28T08:17:56.373Z,27.40
2018-07-28T08:20:27.913Z,27.51
2018-07-28T08:22:57.650Z,27.33
2018-07-28T08:25:27.772Z,27.37
2018-07-28T08:27:58.261Z,27.13
2018-07-28T08:30:28.013Z,27.01
2018-07-28T08:32:58.134Z,27.64
2018-07-28T08:35:29.393Z,28.07
2018-07-28T08:37:59.214Z,28.78
2018-07-28T08:40:29.160Z,27.82
2018-07-28T08:42:59.081Z,28.19
2018-07-28T08:45:28.781Z,27.98
2018-07-28T08:47:58.262Z,28.38
2018-07-28T08:50:28.284Z,28.22
2018-07-28T08:52:58.123Z,28.66
2018-07-28T08:55:28.286Z,28.16
2018-07-28T08:57:57.943Z,28.03
2018-07-28T09:00:27.486Z,27.86
2018-07-28T09:02:57.118Z,28.46
2018-07-28T09:05:36.998Z,28.46
2018-07-28T09:08:07.158Z,28.74
2018-07-28T09:10:37.960Z,28.56
2018-07-28T09:13:08.641Z,28.88
2018-07-28T09:15:38.538Z,28.71
2018-07-28T09:18:08.386Z,28.93
2018-07-28T09:20:38.339Z,29.30
2018-07-28T09:23:08.327Z,29.57
2018-07-28T09:25:38.199Z,29.54
2018-07-28T09:28:08.766Z,30.22
2018-07-28T09:30:38.905Z,29.38
2018-07-28T09:33:08.899Z,28.91
2018-07-28T09:35:38.779Z,29.63
2018-07-28T09:38:18.518Z,30.24
2018-07-28T09:40:48.838Z,31.12
2018-07-28T09:43:20.126Z,30.60
2018-07-28T09:45:50.193Z,29.88
2018-07-28T09:48:20.499Z,29.60
2018-07-28T09:50:50.539Z,29.16
2018-07-28T09:53:20.647Z,29.14
2018-07-28T09:55:50.606Z,28.95
2018-07-28T09:58:20.326Z,28.71
2018-07-28T10:00:55.047Z,29.23
2018-07-28T10:03:24.986Z,29.35
2018-07-28T10:05:55.004Z,28.92
2018-07-28T10:08:24.888Z,28.70
2018-07-28T10:10:54.768Z,28.05
2018-07-28T10:13:25.370Z,27.89
2018-07-28T10:15:55.445Z,28.29
2018-07-28T10:18:26.144Z,27.74
2018-07-28T10:20:56.366Z,28.02
2018-07-28T10:23:26.321Z,28.63
2018-07-28T10:25:56.487Z,29.05
2018-07-28T10:28:26.346Z,29.33
2018-07-28T10:30:56.102Z,30.44
2018-07-28T10:33:25.757Z,29.72
2018-07-28T10:35:55.305Z,30.14
2018-07-28T10:38:24.809Z,30.33
2018-07-28T10:40:54.415Z,30.03
2018-07-28T10:43:28.035Z,30.48
2018-07-28T10:45:58.059Z,30.73
2018-07-28T10:48:29.119Z,31.13
2018-07-28T10:51:04.301Z,30.71
2018-07-28T10:53:37.618Z,30.78
2018-07-28T10:56:07.844Z,30.47
2018-07-28T10:58:39.260Z,30.88
2018-07-28T11:01:09.550Z,30.23
2018-07-28T11:03:39.352Z,30.42
2018-07-28T11:06:09.561Z,31.21
2018-07-28T11:08:40.245Z,31.54
2018-07-28T11:11:13.948Z,31.07
2018-07-28T11:14:00.113Z,31.09
2018-07-28T11:16:32.901Z,31.34
2018-07-28T11:19:03.553Z,31.46
2018-07-28T11:21:37.455Z,30.89
2018-07-28T11:24:10.041Z,30.95
2018-07-28T11:26:49.717Z,30.35
2018-07-28T11:29:39.199Z,30.25
2018-07-28T11:32:19.732Z,30.36
2018-07-28T11:35:01.233Z,30.79
2018-07-28T11:37:41.591Z,30.47
2018-07-28T11:40:23.150Z,29.82
2018-07-28T11:43:03.208Z,30.58
2018-07-28T11:45:32.949Z,31.64
2018-07-28T11:48:02.449Z,31.73
2018-07-28T11:50:32.052Z,31.37
2018-07-28T11:53:01.670Z,31.90
2018-07-28T11:55:31.408Z,31.21
2018-07-28T11:58:01.093Z,31.90
2018-07-28T12:00:30.907Z,30.81
2018-07-28T12:03:00.746Z,31.41
2018-07-28T12:05:30.509Z,31.13
2018-07-28T12:08:00.480Z,30.93
2018-07-28T12:10:30.559Z,31.50
2018-07-28T12:13:00.100Z,32.45
2018-07-28T12:15:30.023Z,32.37
2018-07-28T12:17:59.900Z,31.50
2018-07-28T12:20:29.705Z,30.85
2018-07-28T12:22:59.303Z,30.66
2018-07-28T12:25:29.186Z,30.58
2018-07-28T12:27:58.824Z,31.59
2018-07-28T12:30:28.603Z,32.37
2018-07-28T12:32:59.323Z,31.90
2018-07-28T12:35:29.261Z,31.39
2018-07-28T12:37:58.801Z,31.65
2018-07-28T12:40:28.623Z,31.33
2018-07-28T12:42:59.324Z,31.06
2018-07-28T12:45:29.079Z,30.58
2018-07-28T12:47:58.700Z,30.90
2018-07-28T12:50:28.579Z,31.44
2018-07-28T12:52:58.727Z,31.84
2018-07-28T12:55:32.353Z,32.07
2018-07-28T12:58:02.067Z,32.07
2018-07-28T13:00:32.840Z,32.46
2018-07-28T13:03:02.963Z,33.19
2018-07-28T13:05:33.299Z,33.23
2018-07-28T13:08:03.400Z,33.49
2018-07-28T13:10:33.421Z,32.90
2018-07-28T13:13:03.895Z,33.04
2018-07-28T13:15:57.286Z,31.95
2018-07-28T13:27:51.242Z,31.38
2018-07-28T13:30:24.138Z,30.81
2018-07-28T13:36:18.802Z,30.11
2018-07-28T13:38:50.343Z,29.84
2018-07-28T14:11:59.499Z,29.81
2018-07-28T14:14:42.519Z,29.59
2018-07-28T14:17:17.444Z,30.21
2018-07-28T14:25:58.818Z,30.14
2018-07-28T14:50:00.249Z,28.22
2018-07-28T14:52:41.365Z,28.17
2018-07-28T14:55:21.132Z,28.22
2018-07-28T14:57:50.524Z,27.88
2018-07-28T15:00:31.952Z,27.73
2018-07-28T15:03:08.605Z,27.72
2018-07-28T15:05:38.213Z,27.44
2018-07-28T15:11:06.537Z,27.98
2018-07-28T15:13:40.765Z,28.01
2018-07-28T15:16:11.454Z,27.86
2018-07-28T15:18:42.655Z,28.51
2018-07-28T15:21:13.356Z,29.81
2018-07-28T15:23:46.985Z,31.17
2018-07-28T15:26:18.164Z,31.75
2018-07-28T15:28:49.664Z,32.06
2018-07-28T15:34:24.632Z,32.29
2018-07-28T15:36:57.227Z,32.66
2018-07-28T15:39:27.352Z,32.19
2018-07-28T15:41:57.885Z,32.73
2018-07-28T15:44:33.368Z,33.03
2018-07-28T15:47:10.272Z,33.35
2018-07-28T15:56:02.812Z,33.20
2018-07-28T15:58:32.753Z,32.80
2018-07-28T16:13:03.660Z,34.03
2018-07-28T16:15:55.818Z,34.38
2018-07-28T16:18:27.852Z,34.29
2018-07-28T16:20:58.663Z,33.39
2018-07-28T16:23:30.391Z,33.14
2018-07-28T16:26:00.443Z,33.05
2018-07-28T16:31:28.446Z,31.74
2018-07-28T16:34:00.572Z,31.68
2018-07-28T16:36:34.863Z,31.84
2018-07-28T16:39:08.073Z,31.96
2018-07-28T17:09:12.211Z,29.52
2018-07-28T17:14:59.285Z,28.80
2018-07-28T17:17:39.170Z,28.46
2018-07-28T17:20:27.326Z,28.33
2018-07-28T17:26:03.768Z,26.66
2018-07-28T17:28:42.951Z,26.24
2018-07-28T17:31:13.276Z,25.97
2018-07-28T17:52:36.490Z,24.71
2018-07-28T17:55:07.503Z,24.74
2018-07-28T17:57:37.630Z,24.38
2018-07-28T18:00:11.331Z,24.14
2018-07-28T18:02:57.713Z,23.82
2018-07-28T18:05:39.416Z,23.51
2018-07-28T18:08:09.790Z,23.69
2018-07-28T18:10:41.191Z,23.90
2018-07-28T18:13:23.268Z,23.85
2018-07-28T18:16:09.887Z,23.73
2018-07-28T18:19:05.565Z,23.63
2018-07-28T18:32:04.323Z,22.77
2018-07-28T18:34:38.703Z,22.62
2018-07-28T18:37:22.712Z,22.50
2018-07-28T18:39:59.688Z,22.48
2018-07-28T18:42:30.311Z,22.56
2018-07-28T18:45:05.712Z,22.50
2018-07-28T18:47:35.925Z,22.51
2018-07-28T18:50:13.350Z,22.57
2018-07-28T18:52:45.570Z,22.39
2018-07-28T19:02:06.997Z,22.28
2018-07-28T19:04:37.601Z,22.23
2018-07-28T19:07:09.757Z,22.12
2018-07-28T19:09:54.104Z,21.76
2018-07-28T19:21:38.456Z,21.49
2018-07-28T19:25:09.184Z,21.36
2018-07-28T19:36:43.294Z,20.96
2018-07-28T19:39:16.137Z,20.84
2018-07-28T19:41:52.134Z,20.69
2018-07-28T19:44:33.951Z,20.61
2018-07-28T19:47:05.082Z,20.71
2018-07-28T19:49:39.114Z,20.64
2018-07-28T19:52:12.444Z,20.53
2018-07-28T19:54:52.857Z,20.48
2018-07-28T20:06:57.307Z,20.59
2018-07-28T20:09:29.067Z,20.56
2018-07-28T20:12:00.080Z,20.56
2018-07-28T20:14:32.564Z,20.54
2018-07-28T20:17:05.381Z,20.48
2018-07-28T20:19:53.609Z,20.48
2018-07-28T20:22:31.691Z,20.28
2018-07-28T20:25:07.853Z,20.30
2018-07-28T21:15:27.694Z,19.67
2018-07-28T21:17:59.258Z,19.62
2018-07-28T21:20:29.951Z,19.46
2018-07-28T21:23:01.821Z,19.32
2018-07-28T21:25:34.843Z,19.18
2018-07-28T21:28:08.811Z,19.11
2018-07-28T21:30:46.062Z,18.99
2018-07-28T21:38:03.529Z,19.02
2018-07-28T21:47:00.924Z,19.25
2018-07-28T21:49:35.867Z,19.18
2018-07-28T21:52:19.100Z,18.88
